createdAt,value
2022-08-21T00:00:04.390Z,16
2022-08-21T00:01:12.747Z,16
2022-08-21T00:02:21.366Z,15
2022-08-21T00:03:29.653Z,15
2022-08-21T00:04:38.005Z,15
2022-08-21T00:05:46.567Z,14.4
2022-08-21T00:06:54.919Z,14.4
2022-08-21T00:08:03.269Z,14.4
2022-08-21T00:09:11.823Z,14.5
2022-08-21T00:10:20.182Z,14.5
2022-08-21T00:11:28.550Z,14.5
2022-08-21T00:12:37.107Z,13.6
2022-08-21T00:13:45.461Z,13.6
2022-08-21T00:14:56.990Z,13.6
2022-08-21T00:16:02.400Z,13.5
2022-08-21T00:17:10.745Z,13.5
2022-08-21T00:18:19.113Z,13.5
2022-08-21T00:19:27.664Z,13.1
2022-08-21T00:20:36.027Z,13.1
2022-08-21T00:21:44.788Z,13.1
2022-08-21T00:22:52.939Z,13.1
2022-08-21T00:24:01.299Z,13.1
2022-08-21T00:25:09.666Z,13.1
2022-08-21T00:26:18.212Z,12.9
2022-08-21T00:27:26.563Z,12.9
2022-08-21T00:28:34.919Z,12.9
2022-08-21T00:29:43.467Z,12.6
2022-08-21T00:30:51.836Z,12.6
2022-08-21T00:32:00.186Z,12.6
2022-08-21T00:33:08.748Z,12
2022-08-21T00:34:17.097Z,12
2022-08-21T00:35:25.468Z,12
2022-08-21T00:36:34.010Z,12.9
2022-08-21T00:37:42.370Z,12.9
2022-08-21T00:38:50.732Z,12.9
2022-08-21T00:39:59.344Z,12.4
2022-08-21T00:41:21.211Z,12.4
2022-08-21T00:42:15.996Z,12.4
2022-08-21T00:43:24.536Z,13.1
2022-08-21T00:44:32.889Z,13.1
2022-08-21T00:45:41.259Z,13.1
2022-08-21T00:46:49.811Z,13.5
2022-08-21T00:47:58.161Z,13.5
2022-08-21T00:49:06.510Z,13.5
2022-08-21T00:50:15.083Z,12.7
2022-08-21T00:51:23.434Z,12.7
2022-08-21T00:52:31.785Z,12.7
2022-08-21T00:53:40.352Z,13.1
2022-08-21T00:54:48.698Z,13.1
2022-08-21T00:55:57.075Z,13.1
2022-08-21T00:57:05.635Z,12.9
2022-08-21T00:58:13.997Z,12.9
2022-08-21T00:59:22.355Z,12.9
2022-08-21T01:00:30.923Z,12.9
2022-08-21T01:01:39.339Z,12.9
2022-08-21T01:02:47.633Z,12.9
2022-08-21T01:03:56.175Z,13.2
2022-08-21T01:05:04.544Z,13.2
2022-08-21T01:06:12.893Z,13.2
2022-08-21T01:07:21.452Z,12.6
2022-08-21T01:08:29.805Z,12.6
2022-08-21T01:09:38.156Z,12.6
2022-08-21T01:10:46.737Z,10.9
2022-08-21T01:11:55.074Z,10.9
2022-08-21T01:13:03.425Z,10.9
2022-08-21T01:14:11.988Z,11.3
2022-08-21T01:15:20.342Z,11.3
2022-08-21T01:16:28.696Z,11.3
2022-08-21T01:17:37.268Z,11.7
2022-08-21T01:18:45.622Z,11.7
2022-08-21T01:19:53.995Z,11.7
2022-08-21T01:21:02.557Z,11.5
2022-08-21T01:22:10.910Z,11.5
2022-08-21T01:23:19.274Z,11.5
2022-08-21T01:24:27.844Z,11.1
2022-08-21T01:25:36.196Z,11.1
2022-08-21T01:26:44.552Z,11.1
2022-08-21T01:27:53.123Z,12.2
2022-08-21T01:29:01.467Z,12.2
2022-08-21T01:30:09.832Z,12.2
2022-08-21T01:31:18.411Z,11.2
2022-08-21T01:32:26.747Z,11.2
2022-08-21T01:33:35.089Z,11.2
2022-08-21T01:34:43.679Z,12.1
2022-08-21T01:35:52.016Z,12.1
2022-08-21T01:37:00.377Z,12.1
2022-08-21T01:38:08.935Z,11.8
2022-08-21T01:39:17.280Z,11.8
2022-08-21T01:40:25.635Z,11.8
2022-08-21T01:41:34.203Z,11.7
2022-08-21T01:42:42.547Z,11.7
2022-08-21T01:43:50.913Z,11.7
2022-08-21T01:44:59.453Z,12.8
2022-08-21T01:46:07.807Z,12.8
2022-08-21T01:47:16.157Z,12.8
2022-08-21T01:48:24.710Z,12.5
2022-08-21T01:49:33.068Z,12.5
2022-08-21T01:50:41.425Z,12.5
2022-08-21T01:51:49.988Z,13.5
2022-08-21T01:52:58.563Z,13.5
2022-08-21T01:54:06.691Z,13.5
2022-08-21T01:55:15.259Z,13.1
2022-08-21T01:56:23.620Z,13.1
2022-08-21T01:57:31.953Z,13.1
2022-08-21T01:58:40.512Z,12.5
2022-08-21T01:59:48.868Z,12.5
2022-08-21T02:00:57.263Z,12.5
2022-08-21T02:02:05.781Z,12.3
2022-08-21T02:03:14.140Z,12.3
2022-08-21T02:04:22.480Z,12.3
2022-08-21T02:05:31.055Z,13
2022-08-21T02:06:39.407Z,13
2022-08-21T02:07:47.758Z,13
2022-08-21T02:08:56.322Z,13.4
2022-08-21T02:10:04.695Z,13.4
2022-08-21T02:11:13.045Z,13.4
2022-08-21T02:12:21.606Z,12.5
2022-08-21T02:13:29.978Z,12.5
2022-08-21T02:14:38.326Z,12.5
2022-08-21T02:15:46.885Z,12.7
2022-08-21T02:17:03.422Z,12.7
2022-08-21T02:18:03.589Z,12.7
2022-08-21T02:19:12.153Z,13.5
2022-08-21T02:20:20.525Z,13.5
2022-08-21T02:21:28.871Z,13.5
2022-08-21T02:22:37.444Z,13.7
2022-08-21T02:23:45.802Z,13.7
2022-08-21T02:24:55.346Z,13.7
2022-08-21T02:26:02.726Z,15
2022-08-21T02:27:11.073Z,15
2022-08-21T02:28:19.433Z,15
2022-08-21T02:29:27.990Z,15.5
2022-08-21T02:30:36.346Z,15.5
2022-08-21T02:31:44.704Z,15.5
2022-08-21T02:32:53.256Z,15.6
2022-08-21T02:34:01.614Z,15.6
2022-08-21T02:35:09.981Z,15.6
2022-08-21T02:36:18.531Z,16.200001
2022-08-21T02:37:26.884Z,16.200001
2022-08-21T02:38:35.236Z,16.200001
2022-08-21T02:39:43.844Z,16.4
2022-08-21T02:40:52.154Z,16.4
2022-08-21T02:42:00.507Z,16.4
2022-08-21T02:43:09.066Z,17.799999
2022-08-21T02:44:17.414Z,17.799999
2022-08-21T02:45:25.780Z,17.799999
2022-08-21T02:46:34.333Z,19.299999
2022-08-21T02:47:42.687Z,19.299999
2022-08-21T02:48:51.052Z,19.299999
2022-08-21T02:49:59.617Z,18.799999
2022-08-21T02:51:07.965Z,18.799999
2022-08-21T02:52:16.323Z,18.799999
2022-08-21T02:53:24.874Z,19.5
2022-08-21T02:54:33.225Z,19.5
2022-08-21T02:55:41.584Z,19.5
2022-08-21T02:56:50.143Z,23.799999
2022-08-21T02:57:58.487Z,23.799999
2022-08-21T02:59:06.845Z,23.799999
2022-08-21T03:00:15.405Z,23.1
2022-08-21T03:01:23.817Z,23.1
2022-08-21T03:02:32.103Z,23.1
2022-08-21T03:03:40.665Z,24.9
2022-08-21T03:04:49.036Z,24.9
2022-08-21T03:05:57.398Z,24.9
2022-08-21T03:07:05.936Z,24.700001
2022-08-21T03:08:14.301Z,24.700001
2022-08-21T03:09:22.654Z,24.700001
2022-08-21T03:10:31.211Z,24.200001
2022-08-21T03:11:39.560Z,24.200001
2022-08-21T03:12:47.918Z,24.200001
2022-08-21T03:13:56.465Z,26.6
2022-08-21T03:15:04.831Z,26.6
2022-08-21T03:16:13.189Z,26.6
2022-08-21T03:17:27.248Z,29.4
2022-08-21T03:18:30.108Z,29.4
2022-08-21T03:19:38.479Z,29.4
2022-08-21T03:20:47.044Z,29.6
2022-08-21T03:21:55.397Z,29.6
2022-08-21T03:23:03.752Z,29.6
2022-08-21T03:24:12.321Z,28.6
2022-08-21T03:25:20.679Z,28.6
2022-08-21T03:26:29.037Z,28.6
2022-08-21T03:27:37.592Z,27.799999
2022-08-21T03:28:45.947Z,27.799999
2022-08-21T03:29:54.317Z,27.799999
2022-08-21T03:31:02.880Z,27.1
2022-08-21T03:32:11.228Z,27.1
2022-08-21T03:33:20.473Z,27.1
2022-08-21T03:34:28.136Z,26.9
2022-08-21T03:35:36.511Z,26.9
2022-08-21T03:36:44.857Z,26.9
2022-08-21T03:37:53.408Z,26.6
2022-08-21T03:39:01.759Z,26.6
2022-08-21T03:40:10.225Z,26.6
2022-08-21T03:41:18.681Z,26.5
2022-08-21T03:42:27.028Z,26.5
2022-08-21T03:43:35.377Z,26.5
2022-08-21T03:44:43.945Z,25.700001
2022-08-21T03:45:52.606Z,25.700001
2022-08-21T03:47:00.661Z,25.700001
2022-08-21T03:48:09.209Z,26.299999
2022-08-21T03:49:17.551Z,26.299999
2022-08-21T03:50:25.924Z,26.299999
2022-08-21T03:51:34.481Z,26.299999
2022-08-21T03:52:42.833Z,26.299999
2022-08-21T03:53:51.200Z,26.299999
2022-08-21T03:54:59.758Z,26.799999
2022-08-21T03:56:08.118Z,26.799999
2022-08-21T03:57:16.466Z,26.799999
2022-08-21T03:58:25.017Z,25.6
2022-08-21T03:59:33.380Z,25.6
2022-08-21T04:00:41.757Z,25.6
2022-08-21T04:01:50.349Z,27.1
2022-08-21T04:02:58.808Z,27.1
2022-08-21T04:04:07.007Z,27.1
2022-08-21T04:05:15.578Z,24.9
2022-08-21T04:06:23.934Z,24.9
2022-08-21T04:07:32.293Z,24.9
2022-08-21T04:08:40.858Z,25.6
2022-08-21T04:09:49.213Z,25.6
2022-08-21T04:10:57.572Z,25.6
2022-08-21T04:12:06.144Z,25.1
2022-08-21T04:13:14.494Z,25.1
2022-08-21T04:14:22.843Z,25.1
2022-08-21T04:15:31.423Z,25.299999
2022-08-21T04:16:39.771Z,25.299999
2022-08-21T04:17:48.121Z,25.299999
2022-08-21T04:18:56.675Z,24
2022-08-21T04:20:05.037Z,24
2022-08-21T04:21:13.538Z,24
2022-08-21T04:22:21.980Z,22.9
2022-08-21T04:23:30.333Z,22.9
2022-08-21T04:24:38.709Z,22.9
2022-08-21T04:25:47.258Z,23.1
2022-08-21T04:26:55.607Z,23.1
2022-08-21T04:28:03.958Z,23.1
2022-08-21T04:29:12.508Z,25.1
2022-08-21T04:30:20.874Z,25.1
2022-08-21T04:31:29.233Z,25.1
2022-08-21T04:32:37.778Z,25.6
2022-08-21T04:33:46.131Z,25.6
2022-08-21T04:34:54.499Z,25.6
2022-08-21T04:36:03.056Z,25.9
2022-08-21T04:37:11.394Z,25.9
2022-08-21T04:38:19.749Z,25.9
2022-08-21T04:39:29.622Z,25.1
2022-08-21T04:40:36.670Z,25.1
2022-08-21T04:41:45.022Z,25.1
2022-08-21T04:42:53.592Z,23.799999
2022-08-21T04:44:01.929Z,23.799999
2022-08-21T04:45:10.284Z,23.799999
2022-08-21T04:46:18.859Z,23.9
2022-08-21T04:47:41.909Z,23.9
2022-08-21T04:48:35.570Z,23.9
2022-08-21T04:49:44.150Z,24.4
2022-08-21T04:50:52.495Z,24.4
2022-08-21T04:52:00.847Z,24.4
2022-08-21T04:53:09.437Z,23.700001
2022-08-21T04:54:17.791Z,23.700001
2022-08-21T04:55:26.150Z,23.700001
2022-08-21T04:56:34.723Z,21.5
2022-08-21T04:57:48.395Z,21.5
2022-08-21T04:58:51.419Z,21.5
2022-08-21T04:59:59.990Z,20.5
2022-08-21T05:01:08.404Z,20.5
2022-08-21T05:02:16.709Z,20.5
2022-08-21T05:03:25.267Z,19.200001
2022-08-21T05:04:33.619Z,19.200001
2022-08-21T05:05:41.975Z,19.200001
2022-08-21T05:06:50.547Z,19.799999
2022-08-21T05:07:58.898Z,19.799999
2022-08-21T05:09:07.254Z,19.799999
2022-08-21T05:10:15.822Z,21.200001
2022-08-21T05:11:24.165Z,21.200001
2022-08-21T05:12:32.519Z,21.200001
2022-08-21T05:13:41.067Z,19.1
2022-08-21T05:14:49.444Z,19.1
2022-08-21T05:15:57.791Z,19.1
2022-08-21T05:17:06.348Z,18.799999
2022-08-21T05:18:14.682Z,18.799999
2022-08-21T05:19:23.039Z,18.799999
2022-08-21T05:20:31.598Z,19.799999
2022-08-21T05:21:39.956Z,19.799999
2022-08-21T05:22:48.311Z,19.799999
2022-08-21T05:23:56.944Z,22.1
2022-08-21T05:25:06.574Z,22.1
2022-08-21T05:26:17.979Z,22.1
2022-08-21T05:27:22.218Z,20.4
2022-08-21T05:28:30.573Z,20.4
2022-08-21T05:29:38.926Z,20.4
2022-08-21T05:30:47.488Z,21.5
2022-08-21T05:31:55.835Z,21.5
2022-08-21T05:33:04.178Z,21.5
2022-08-21T05:34:12.745Z,20.9
2022-08-21T05:35:21.117Z,20.9
2022-08-21T05:36:29.450Z,20.9
2022-08-21T05:37:38.006Z,21.700001
2022-08-21T05:38:46.371Z,21.700001
2022-08-21T05:40:05.498Z,21.700001
2022-08-21T05:41:03.461Z,21.200001
2022-08-21T05:42:11.672Z,21.200001
2022-08-21T05:43:20.037Z,21.200001
2022-08-21T05:44:28.599Z,22.1
2022-08-21T05:45:41.405Z,22.1
2022-08-21T05:46:45.325Z,22.1
2022-08-21T05:47:53.879Z,21.799999
2022-08-21T05:49:02.296Z,21.799999
2022-08-21T05:50:10.711Z,21.799999
2022-08-21T05:51:19.222Z,23.700001
2022-08-21T05:52:27.662Z,23.700001
2022-08-21T05:53:36.001Z,23.700001
2022-08-21T05:54:44.562Z,23.200001
2022-08-21T05:55:52.888Z,23.200001
2022-08-21T05:57:01.236Z,23.200001
2022-08-21T05:58:09.815Z,23.299999
2022-08-21T05:59:18.155Z,23.299999
2022-08-21T06:00:26.511Z,23.299999
2022-08-21T06:01:35.102Z,24.700001
2022-08-21T06:02:43.430Z,24.700001
2022-08-21T06:03:51.771Z,24.700001
2022-08-21T06:05:00.338Z,24.299999
2022-08-21T06:06:08.692Z,24.299999
2022-08-21T06:07:17.031Z,24.299999
2022-08-21T06:08:25.595Z,24.200001
2022-08-21T06:09:33.939Z,24.200001
2022-08-21T06:10:42.303Z,24.200001
2022-08-21T06:11:50.867Z,23.5
2022-08-21T06:12:59.441Z,23.5
2022-08-21T06:14:07.682Z,23.5
2022-08-21T06:15:16.420Z,23.1
2022-08-21T06:16:24.778Z,23.1
2022-08-21T06:17:33.121Z,23.1
2022-08-21T06:18:41.674Z,22.700001
2022-08-21T06:19:50.028Z,22.700001
2022-08-21T06:20:58.398Z,22.700001
2022-08-21T06:22:06.996Z,23.200001
2022-08-21T06:23:15.375Z,23.200001
2022-08-21T06:24:23.716Z,23.200001
2022-08-21T06:25:32.307Z,21.4
2022-08-21T06:26:40.638Z,21.4
2022-08-21T06:27:49.036Z,21.4
2022-08-21T06:28:57.596Z,22.6
2022-08-21T06:30:05.969Z,22.6
2022-08-21T06:31:14.311Z,22.6
2022-08-21T06:32:22.884Z,22.1
2022-08-21T06:33:32.769Z,22.1
2022-08-21T06:34:39.651Z,22.1
2022-08-21T06:35:48.220Z,22
2022-08-21T06:36:56.760Z,22
2022-08-21T06:38:04.955Z,22
2022-08-21T06:39:16.761Z,21.9
2022-08-21T06:40:21.950Z,21.9
2022-08-21T06:41:30.262Z,21.9
2022-08-21T06:42:38.948Z,21.5
2022-08-21T06:43:47.341Z,21.5
2022-08-21T06:44:55.821Z,21.5
2022-08-21T06:46:04.471Z,21.200001
2022-08-21T06:47:12.826Z,21.200001
2022-08-21T06:48:21.171Z,21.200001
2022-08-21T06:49:29.749Z,21.4
2022-08-21T06:50:38.121Z,21.4
2022-08-21T06:51:46.479Z,21.4
2022-08-21T06:52:55.058Z,21.5
2022-08-21T06:54:03.396Z,21.5
2022-08-21T06:55:11.901Z,21.5
2022-08-21T06:56:20.463Z,22.6
2022-08-21T06:57:28.807Z,22.6
2022-08-21T06:58:37.174Z,22.6
2022-08-21T06:59:45.777Z,22.4
2022-08-21T07:00:57.604Z,22.4
2022-08-21T07:02:02.578Z,22.4
2022-08-21T07:03:11.043Z,21.5
2022-08-21T07:04:19.391Z,21.5
2022-08-21T07:05:27.758Z,21.5
2022-08-21T07:06:36.315Z,22.9
2022-08-21T07:07:44.663Z,22.9
2022-08-21T07:08:53.016Z,22.9
2022-08-21T07:10:01.576Z,21.299999
2022-08-21T07:11:09.924Z,21.299999
2022-08-21T07:12:18.577Z,21.299999
2022-08-21T07:13:27.054Z,20
2022-08-21T07:14:35.415Z,20
2022-08-21T07:15:43.785Z,20
2022-08-21T07:16:52.369Z,18.799999
2022-08-21T07:18:00.710Z,18.799999
2022-08-21T07:19:09.055Z,18.799999
2022-08-21T07:20:17.625Z,17.5
2022-08-21T07:21:26.372Z,17.5
2022-08-21T07:22:34.332Z,17.5
2022-08-21T07:23:42.889Z,18
2022-08-21T07:24:51.243Z,18
2022-08-21T07:25:59.599Z,18
2022-08-21T07:27:10.009Z,16.799999
2022-08-21T07:28:16.474Z,16.799999
2022-08-21T07:29:24.803Z,16.799999
2022-08-21T07:30:33.368Z,17.799999
2022-08-21T07:31:41.727Z,17.799999
2022-08-21T07:32:50.075Z,17.799999
2022-08-21T07:33:58.629Z,15.1
2022-08-21T07:35:06.982Z,15.1
2022-08-21T07:36:15.331Z,15.1
2022-08-21T07:37:23.880Z,15.7
2022-08-21T07:38:32.229Z,15.7
2022-08-21T07:39:40.609Z,15.7
2022-08-21T07:40:49.146Z,15.4
2022-08-21T07:41:57.476Z,15.4
2022-08-21T07:43:05.815Z,15.4
2022-08-21T07:44:14.381Z,17.5
2022-08-21T07:45:22.721Z,17.5
2022-08-21T07:46:31.052Z,17.5
2022-08-21T07:47:42.685Z,17.299999
2022-08-21T07:48:47.972Z,17.299999
2022-08-21T07:49:56.319Z,17.299999
2022-08-21T07:51:04.882Z,17.4
2022-08-21T07:52:13.228Z,17.4
2022-08-21T07:53:21.584Z,17.4
2022-08-21T07:54:33.765Z,17.799999
2022-08-21T07:55:38.541Z,17.799999
2022-08-21T07:56:46.894Z,17.799999
2022-08-21T07:57:55.460Z,16.6
2022-08-21T07:59:03.822Z,16.6
2022-08-21T08:00:12.171Z,16.6
2022-08-21T08:01:20.761Z,16.6
2022-08-21T08:02:29.083Z,16.6
2022-08-21T08:03:37.409Z,16.6
2022-08-21T08:04:50.704Z,16.200001
2022-08-21T08:05:54.311Z,16.200001
2022-08-21T08:07:02.633Z,16.200001
2022-08-21T08:08:11.188Z,14.2
2022-08-21T08:09:19.554Z,14.2
2022-08-21T08:10:27.902Z,14.2
2022-08-21T08:11:36.474Z,13.2
2022-08-21T08:12:44.808Z,13.2
2022-08-21T08:13:53.152Z,13.2
2022-08-21T08:15:01.715Z,13.4
2022-08-21T08:16:10.044Z,13.4
2022-08-21T08:17:18.379Z,13.4
2022-08-21T08:18:26.911Z,12.9
2022-08-21T08:19:35.279Z,12.9
2022-08-21T08:20:43.633Z,12.9
2022-08-21T08:21:52.180Z,14.2
2022-08-21T08:23:00.593Z,14.2
2022-08-21T08:24:18.569Z,14.2
2022-08-21T08:25:17.426Z,15.1
2022-08-21T08:26:25.771Z,15.1
2022-08-21T08:27:34.116Z,15.1
2022-08-21T08:28:42.673Z,15.9
2022-08-21T08:29:51.034Z,15.9
2022-08-21T08:30:59.375Z,15.9
2022-08-21T08:32:07.937Z,16.5
2022-08-21T08:33:16.287Z,16.5
2022-08-21T08:34:25.127Z,16.5
2022-08-21T08:35:33.202Z,16.6
2022-08-21T08:36:41.548Z,16.6
2022-08-21T08:37:52.650Z,16.6
2022-08-21T08:38:58.459Z,17
2022-08-21T08:40:06.896Z,17
2022-08-21T08:41:15.175Z,17
2022-08-21T08:42:32.494Z,15.7
2022-08-21T08:43:32.088Z,15.7
2022-08-21T08:44:40.450Z,15.7
2022-08-21T08:45:49.007Z,16.299999
2022-08-21T08:46:57.401Z,16.299999
2022-08-21T08:48:05.741Z,16.299999
2022-08-21T08:49:14.440Z,16.1
2022-08-21T08:50:22.655Z,16.1
2022-08-21T08:51:31.011Z,16.1
2022-08-21T08:52:39.556Z,15
2022-08-21T08:53:47.921Z,15
2022-08-21T08:54:56.287Z,15
2022-08-21T08:56:04.869Z,16.299999
2022-08-21T08:57:13.214Z,16.299999
2022-08-21T08:58:21.564Z,16.299999
2022-08-21T08:59:31.982Z,16
2022-08-21T09:00:40.333Z,16
2022-08-21T09:01:48.780Z,16
2022-08-21T09:02:57.461Z,16.200001
2022-08-21T09:04:05.609Z,16.200001
2022-08-21T09:05:14.151Z,16.200001
2022-08-21T09:06:22.817Z,15.9
2022-08-21T09:07:31.172Z,15.9
2022-08-21T09:08:39.700Z,15.9
2022-08-21T09:09:48.276Z,16.700001
2022-08-21T09:10:56.960Z,16.700001
2022-08-21T09:12:05.301Z,16.700001
2022-08-21T09:13:13.895Z,16.799999
2022-08-21T09:14:22.910Z,16.799999
2022-08-21T09:15:31.245Z,16.799999
2022-08-21T09:16:39.823Z,16
2022-08-21T09:17:48.148Z,16
2022-08-21T09:18:57.899Z,16
2022-08-21T09:20:06.461Z,16.299999
2022-08-21T09:21:14.801Z,16.299999
2022-08-21T09:22:23.133Z,16.299999
2022-08-21T09:23:31.662Z,16.799999
2022-08-21T09:24:40.006Z,16.799999
2022-08-21T09:25:48.346Z,16.799999
2022-08-21T09:26:56.886Z,15.7
2022-08-21T09:28:05.223Z,15.7
2022-08-21T09:29:13.626Z,15.7
2022-08-21T09:30:22.444Z,15.6
2022-08-21T09:31:30.784Z,15.6
2022-08-21T09:32:39.122Z,15.6
2022-08-21T09:33:47.685Z,16.700001
2022-08-21T09:34:56.016Z,16.700001
2022-08-21T09:36:04.386Z,16.700001
2022-08-21T09:37:12.955Z,16
2022-08-21T09:38:21.309Z,16
2022-08-21T09:39:29.663Z,16
2022-08-21T09:40:38.319Z,16.200001
2022-08-21T09:41:46.552Z,16.200001
2022-08-21T09:42:54.942Z,16.200001
2022-08-21T09:44:03.450Z,15.3
2022-08-21T09:45:11.774Z,15.3
2022-08-21T09:46:20.112Z,15.3
2022-08-21T09:47:28.676Z,16.299999
2022-08-21T09:48:37.067Z,16.299999
2022-08-21T09:49:45.383Z,16.299999
2022-08-21T09:50:53.923Z,16.9
2022-08-21T09:52:02.254Z,16.9
2022-08-21T09:53:10.591Z,16.9
2022-08-21T09:54:19.140Z,16.200001
2022-08-21T09:55:27.486Z,16.200001
2022-08-21T09:56:35.813Z,16.200001
2022-08-21T09:57:44.684Z,16
2022-08-21T09:58:52.751Z,16
2022-08-21T10:00:01.098Z,16
2022-08-21T10:01:09.732Z,13.8
2022-08-21T10:02:18.002Z,13.8
2022-08-21T10:03:26.354Z,13.8
2022-08-21T10:04:34.908Z,15.5
2022-08-21T10:05:43.264Z,15.5
2022-08-21T10:06:51.619Z,15.5
2022-08-21T10:08:00.194Z,15.6
2022-08-21T10:09:08.528Z,15.6
2022-08-21T10:10:16.871Z,15.6
2022-08-21T10:11:25.441Z,14.8
2022-08-21T10:12:33.786Z,14.8
2022-08-21T10:13:42.142Z,14.8
2022-08-21T10:14:50.649Z,13.6
2022-08-21T10:15:59.006Z,13.6
2022-08-21T10:17:07.341Z,13.6
2022-08-21T10:18:16.189Z,13.6
2022-08-21T10:19:24.453Z,13.6
2022-08-21T10:20:32.856Z,13.6
2022-08-21T10:21:41.390Z,13.8
2022-08-21T10:22:49.870Z,13.8
2022-08-21T10:23:58.224Z,13.8
2022-08-21T10:25:06.783Z,15.1
2022-08-21T10:26:15.264Z,15.1
2022-08-21T10:27:23.713Z,15.1
2022-08-21T10:28:32.280Z,14.8
2022-08-21T10:29:40.875Z,14.8
2022-08-21T10:30:49.187Z,14.8
2022-08-21T10:31:57.759Z,13.5
2022-08-21T10:33:07.681Z,13.5
2022-08-21T10:34:16.018Z,13.5
2022-08-21T10:35:24.576Z,14.3
2022-08-21T10:36:32.943Z,14.3
2022-08-21T10:37:44.670Z,14.3
2022-08-21T10:39:12.032Z,12.7
2022-08-21T10:40:01.744Z,12.7
2022-08-21T10:41:09.975Z,12.7
2022-08-21T10:42:18.526Z,11.7
2022-08-21T10:43:26.892Z,11.7
2022-08-21T10:44:35.240Z,11.7
2022-08-21T10:45:43.790Z,10.9
2022-08-21T10:46:52.169Z,10.9
2022-08-21T10:48:00.550Z,10.9
2022-08-21T10:49:09.111Z,11.3
2022-08-21T10:50:17.470Z,11.3
2022-08-21T10:51:28.949Z,11.3
2022-08-21T10:52:34.390Z,10.3
2022-08-21T10:53:42.781Z,10.3
2022-08-21T10:54:51.131Z,10.3
2022-08-21T10:55:59.694Z,10.7
2022-08-21T10:57:08.063Z,10.7
2022-08-21T10:58:16.419Z,10.7
2022-08-21T10:59:24.977Z,10.5
2022-08-21T11:00:33.377Z,10.5
2022-08-21T11:01:41.691Z,10.5
2022-08-21T11:02:50.359Z,10
2022-08-21T11:03:58.613Z,10
2022-08-21T11:05:06.960Z,10
2022-08-21T11:06:15.517Z,10.9
2022-08-21T11:07:23.885Z,10.9
2022-08-21T11:08:32.229Z,10.9
2022-08-21T11:09:40.798Z,10.1
2022-08-21T11:10:51.267Z,10.1
2022-08-21T11:11:59.215Z,10.1
2022-08-21T11:13:06.628Z,9.3
2022-08-21T11:14:15.001Z,9.3
2022-08-21T11:15:29.419Z,9.3
2022-08-21T11:16:31.936Z,8
2022-08-21T11:17:40.304Z,8
2022-08-21T11:18:48.642Z,8
2022-08-21T11:19:57.200Z,8.7
2022-08-21T11:21:05.555Z,8.7
2022-08-21T11:22:13.892Z,8.7
2022-08-21T11:23:22.456Z,7.9
2022-08-21T11:24:30.817Z,7.9
2022-08-21T11:25:39.161Z,7.9
2022-08-21T11:26:47.721Z,7.9
2022-08-21T11:27:56.066Z,7.9
2022-08-21T11:29:04.421Z,7.9
2022-08-21T11:30:12.977Z,7.1
2022-08-21T11:31:21.309Z,7.1
2022-08-21T11:32:29.642Z,7.1
2022-08-21T11:33:38.213Z,6.8
2022-08-21T11:34:46.650Z,6.8
2022-08-21T11:35:54.998Z,6.8
2022-08-21T11:37:03.583Z,6.7
2022-08-21T11:38:11.909Z,6.7
2022-08-21T11:39:20.280Z,6.7
2022-08-21T11:40:29.164Z,6.2
2022-08-21T11:41:37.500Z,6.2
2022-08-21T11:42:46.106Z,6.2
2022-08-21T11:43:54.658Z,6.1
2022-08-21T11:45:03.026Z,6.1
2022-08-21T11:46:11.399Z,6.1
2022-08-21T11:47:19.935Z,6.2
2022-08-21T11:48:28.574Z,6.2
2022-08-21T11:49:36.922Z,6.2
2022-08-21T11:50:45.496Z,6.1
2022-08-21T11:51:53.875Z,6.1
2022-08-21T11:53:02.212Z,6.1
2022-08-21T11:54:10.774Z,5.8
2022-08-21T11:55:23.478Z,5.8
2022-08-21T11:56:27.439Z,5.8
2022-08-21T11:57:35.984Z,5.4
2022-08-21T11:58:44.326Z,5.4
2022-08-21T11:59:52.700Z,5.4
2022-08-21T12:01:01.247Z,6
2022-08-21T12:02:09.642Z,6
2022-08-21T12:03:17.937Z,6
2022-08-21T12:04:26.486Z,5.6
2022-08-21T12:05:34.829Z,5.6
2022-08-21T12:06:43.212Z,5.6
2022-08-21T12:07:51.782Z,6
2022-08-21T12:09:00.134Z,6
2022-08-21T12:10:08.515Z,6
2022-08-21T12:11:17.069Z,6
2022-08-21T12:12:25.438Z,6
2022-08-21T12:13:36.825Z,6
2022-08-21T12:14:42.355Z,5.3
2022-08-21T12:15:50.700Z,5.3
2022-08-21T12:16:59.055Z,5.3
2022-08-21T12:18:07.621Z,5.2
2022-08-21T12:19:16.582Z,5.2
2022-08-21T12:20:24.911Z,5.2
2022-08-21T12:21:33.471Z,5.1
2022-08-21T12:22:42.130Z,5.1
2022-08-21T12:23:50.195Z,5.1
2022-08-21T12:24:58.769Z,5.2
2022-08-21T12:26:07.234Z,5.2
2022-08-21T12:27:15.589Z,5.2
2022-08-21T12:28:24.146Z,5.4
2022-08-21T12:29:32.516Z,5.4
2022-08-21T12:30:41.746Z,5.4
2022-08-21T12:31:50.315Z,5.4
2022-08-21T12:32:58.804Z,5.4
2022-08-21T12:34:07.090Z,5.4
2022-08-21T12:35:23.238Z,5.5
2022-08-21T12:36:24.021Z,5.5
2022-08-21T12:37:32.381Z,5.5
2022-08-21T12:38:40.973Z,5.9
2022-08-21T12:39:49.340Z,5.9
2022-08-21T12:40:57.661Z,5.9
2022-08-21T12:42:06.242Z,5.7
2022-08-21T12:43:14.581Z,5.7
2022-08-21T12:44:22.954Z,5.7
2022-08-21T12:45:31.508Z,5.5
2022-08-21T12:46:39.880Z,5.5
2022-08-21T12:47:48.261Z,5.5
2022-08-21T12:48:56.804Z,5.6
2022-08-21T12:50:05.147Z,5.6
2022-08-21T12:51:13.532Z,5.6
2022-08-21T12:52:22.079Z,5.2
2022-08-21T12:53:30.431Z,5.2
2022-08-21T12:54:39.584Z,5.2
2022-08-21T12:55:48.147Z,5.5
2022-08-21T12:56:56.499Z,5.5
2022-08-21T12:58:04.866Z,5.5
2022-08-21T12:59:13.432Z,5.5
2022-08-21T13:00:21.792Z,5.5
2022-08-21T13:01:30.198Z,5.5
2022-08-21T13:02:38.709Z,5.5
2022-08-21T13:03:47.065Z,5.5
2022-08-21T13:04:55.432Z,5.5
2022-08-21T13:06:03.977Z,4.9
2022-08-21T13:07:12.352Z,4.9
2022-08-21T13:08:20.726Z,4.9
2022-08-21T13:09:29.264Z,5.4
2022-08-21T13:10:37.640Z,5.4
2022-08-21T13:11:45.994Z,5.4
2022-08-21T13:12:54.575Z,5.9
2022-08-21T13:14:03.131Z,5.9
2022-08-21T13:15:11.282Z,5.9
2022-08-21T13:16:19.856Z,5.4
2022-08-21T13:17:28.195Z,5.4
2022-08-21T13:18:36.553Z,5.4
2022-08-21T13:19:45.115Z,4.5
2022-08-21T13:20:53.465Z,4.5
2022-08-21T13:22:01.859Z,4.5
2022-08-21T13:23:10.385Z,4.7
2022-08-21T13:24:41.058Z,4.7
2022-08-21T13:25:27.101Z,4.7
2022-08-21T13:26:35.654Z,4.4
2022-08-21T13:27:44.004Z,4.4
2022-08-21T13:28:52.365Z,4.4
2022-08-21T13:30:00.921Z,4.4
2022-08-21T13:31:09.303Z,4.4
2022-08-21T13:32:17.660Z,4.4
2022-08-21T13:33:35.211Z,4.5
2022-08-21T13:34:34.572Z,4.5
2022-08-21T13:35:42.967Z,4.5
2022-08-21T13:36:51.510Z,4.5
2022-08-21T13:37:59.862Z,4.5
2022-08-21T13:39:08.208Z,4.5
2022-08-21T13:40:16.828Z,4.4
2022-08-21T13:41:25.154Z,4.4
2022-08-21T13:42:33.496Z,4.4
2022-08-21T13:43:42.057Z,4.7
2022-08-21T13:44:50.423Z,4.7
2022-08-21T13:45:58.782Z,4.7
2022-08-21T13:47:07.347Z,4.1
2022-08-21T13:48:15.697Z,4.1
2022-08-21T13:49:24.053Z,4.1
2022-08-21T13:50:32.617Z,4.6
2022-08-21T13:51:40.979Z,4.6
2022-08-21T13:52:49.317Z,4.6
2022-08-21T13:53:57.896Z,4.4
2022-08-21T13:55:06.270Z,4.4
2022-08-21T13:56:14.615Z,4.4
2022-08-21T13:57:23.186Z,3.9
2022-08-21T13:58:31.535Z,3.9
2022-08-21T13:59:39.885Z,3.9
2022-08-21T14:00:48.454Z,4.2
2022-08-21T14:01:56.863Z,4.2
2022-08-21T14:03:05.181Z,4.2
2022-08-21T14:04:13.743Z,4.5
2022-08-21T14:05:22.099Z,4.5
2022-08-21T14:06:31.145Z,4.5
2022-08-21T14:07:40.189Z,4.7
2022-08-21T14:08:48.528Z,4.7
2022-08-21T14:09:56.871Z,4.7
2022-08-21T14:11:05.460Z,4.7
2022-08-21T14:12:14.410Z,4.7
2022-08-21T14:13:22.157Z,4.7
2022-08-21T14:14:30.741Z,4.9
2022-08-21T14:15:41.655Z,4.9
2022-08-21T14:16:50.435Z,4.9
2022-08-21T14:17:59.015Z,5.5
2022-08-21T14:19:07.351Z,5.5
2022-08-21T14:20:15.702Z,5.5
2022-08-21T14:21:24.308Z,4.5
2022-08-21T14:22:32.651Z,4.5
2022-08-21T14:23:40.998Z,4.5
2022-08-21T14:24:49.761Z,4.3
2022-08-21T14:25:57.924Z,4.3
2022-08-21T14:27:06.310Z,4.3
2022-08-21T14:28:18.998Z,3.9
2022-08-21T14:29:23.251Z,3.9
2022-08-21T15:03:48.405Z,0
2022-08-21T15:04:56.764Z,0
2022-08-21T15:06:05.280Z,0
2022-08-21T15:07:13.856Z,4.3
2022-08-21T15:08:22.205Z,4.3
2022-08-21T15:09:30.579Z,4.3
2022-08-21T15:10:52.563Z,4.6
2022-08-21T15:11:47.511Z,4.6
2022-08-21T15:12:55.850Z,4.6
2022-08-21T15:14:04.422Z,4.2
2022-08-21T15:15:12.810Z,4.2
2022-08-21T15:16:21.150Z,4.2
2022-08-21T15:17:29.717Z,4.3
2022-08-21T15:18:38.061Z,4.3
2022-08-21T15:19:46.428Z,4.3
2022-08-21T15:20:54.995Z,4.3
2022-08-21T15:22:03.367Z,4.3
2022-08-21T15:23:14.804Z,4.3
2022-08-21T15:24:20.278Z,4.3
2022-08-21T15:25:28.656Z,4.3
2022-08-21T15:26:37.043Z,4.3
2022-08-21T15:27:45.592Z,4.2